sensor_id;sensor_type;location;lat;lon;timestamp;P1;durP1;ratioP1;P2;durP2;ratioP2
3068;SDS011;1545;51.728;8.796;2023-04-03T00:01:25;11.07;;;3.80;;
3068;SDS011;1545;51.728;8.796;2023-04-03T00:03:51;9.73;;;4.27;;
3068;SDS011;1545;51.728;8.796;2023-04-03T00:06:16;21.73;;;4.87;;
3068;SDS011;1545;51.728;8.796;2023-04-03T00:08:42;11.47;;;4.67;;
3068;SDS011;1545;51.728;8.796;2023-04-03T00:11:08;10.87;;;4.10;;
3068;SDS011;1545;51.728;8.796;2023-04-03T00:13:34;13.70;;;4.50;;
3068;SDS011;1545;51.728;8.796;2023-04-03T00:16:00;14.30;;;3.80;;
3068;SDS011;1545;51.728;8.796;2023-04-03T00:18:26;10.57;;;4.17;;
3068;SDS011;1545;51.728;8.796;2023-04-03T00:20:52;11.17;;;4.40;;
3068;SDS011;1545;51.728;8.796;2023-04-03T00:23:17;12.03;;;4.60;;
3068;SDS011;1545;51.728;8.796;2023-04-03T00:25:43;16.33;;;5.10;;
3068;SDS011;1545;51.728;8.796;2023-04-03T00:28:09;9.60;;;4.43;;
3068;SDS011;1545;51.728;8.796;2023-04-03T00:30:35;11.50;;;4.53;;
3068;SDS011;1545;51.728;8.796;2023-04-03T00:33:00;12.97;;;4.40;;
3068;SDS011;1545;51.728;8.796;2023-04-03T00:35:26;11.80;;;4.70;;
3068;SDS011;1545;51.728;8.796;2023-04-03T00:37:53;10.93;;;4.50;;
3068;SDS011;1545;51.728;8.796;2023-04-03T00:40:20;13.23;;;3.40;;
3068;SDS011;1545;51.728;8.796;2023-04-03T00:42:53;11.47;;;4.43;;
3068;SDS011;1545;51.728;8.796;2023-04-03T00:45:26;10.73;;;4.47;;
3068;SDS011;1545;51.728;8.796;2023-04-03T00:47:57;11.80;;;4.70;;
3068;SDS011;1545;51.728;8.796;2023-04-03T00:50:25;16.37;;;4.70;;
3068;SDS011;1545;51.728;8.796;2023-04-03T00:52:51;10.53;;;4.30;;
3068;SDS011;1545;51.728;8.796;2023-04-03T00:55:18;11.90;;;4.30;;
3068;SDS011;1545;51.728;8.796;2023-04-03T00:57:44;14.93;;;4.83;;
3068;SDS011;1545;51.728;8.796;2023-04-03T01:00:12;12.57;;;4.57;;
3068;SDS011;1545;51.728;8.796;2023-04-03T01:02:40;13.70;;;4.37;;
3068;SDS011;1545;51.728;8.796;2023-04-03T01:05:06;13.63;;;5.13;;
3068;SDS011;1545;51.728;8.796;2023-04-03T01:07:32;20.87;;;4.73;;
3068;SDS011;1545;51.728;8.796;2023-04-03T01:10:04;14.13;;;4.83;;
3068;SDS011;1545;51.728;8.796;2023-04-03T01:12:34;11.90;;;4.77;;
3068;SDS011;1545;51.728;8.796;2023-04-03T01:15:04;12.83;;;4.97;;
3068;SDS011;1545;51.728;8.796;2023-04-03T01:17:34;17.53;;;5.03;;
3068;SDS011;1545;51.728;8.796;2023-04-03T01:23:03;13.47;;;5.07;;
3068;SDS011;1545;51.728;8.796;2023-04-03T01:25:38;20.00;;;6.57;;
3068;SDS011;1545;51.728;8.796;2023-04-03T01:28:05;12.90;;;5.57;;
3068;SDS011;1545;51.728;8.796;2023-04-03T01:30:37;12.33;;;4.87;;
3068;SDS011;1545;51.728;8.796;2023-04-03T01:33:21;17.30;;;5.90;;
3068;SDS011;1545;51.728;8.796;2023-04-03T01:35:46;13.93;;;5.50;;
3068;SDS011;1545;51.728;8.796;2023-04-03T01:38:12;17.23;;;6.30;;
3068;SDS011;1545;51.728;8.796;2023-04-03T01:40:37;13.57;;;5.03;;
3068;SDS011;1545;51.728;8.796;2023-04-03T01:43:03;16.10;;;5.57;;
3068;SDS011;1545;51.728;8.796;2023-04-03T01:45:28;12.37;;;4.97;;
3068;SDS011;1545;51.728;8.796;2023-04-03T01:47:53;15.57;;;5.60;;
3068;SDS011;1545;51.728;8.796;2023-04-03T01:50:19;19.60;;;5.77;;
3068;SDS011;1545;51.728;8.796;2023-04-03T01:52:45;10.50;;;5.10;;
3068;SDS011;1545;51.728;8.796;2023-04-03T01:55:10;12.97;;;5.17;;
3068;SDS011;1545;51.728;8.796;2023-04-03T01:57:36;18.93;;;5.27;;
3068;SDS011;1545;51.728;8.796;2023-04-03T02:00:01;16.90;;;5.67;;
3068;SDS011;1545;51.728;8.796;2023-04-03T02:02:28;18.53;;;5.67;;
3068;SDS011;1545;51.728;8.796;2023-04-03T02:04:53;11.93;;;4.77;;
3068;SDS011;1545;51.728;8.796;2023-04-03T02:07:19;18.03;;;5.47;;
3068;SDS011;1545;51.728;8.796;2023-04-03T02:09:45;17.50;;;5.17;;
3068;SDS011;1545;51.728;8.796;2023-04-03T02:12:10;12.90;;;5.00;;
3068;SDS011;1545;51.728;8.796;2023-04-03T02:14:36;21.97;;;5.13;;
3068;SDS011;1545;51.728;8.796;2023-04-03T02:17:01;14.47;;;5.30;;
3068;SDS011;1545;51.728;8.796;2023-04-03T02:19:36;14.80;;;5.03;;
3068;SDS011;1545;51.728;8.796;2023-04-03T02:22:02;14.87;;;5.20;;
3068;SDS011;1545;51.728;8.796;2023-04-03T02:24:28;14.47;;;5.20;;
3068;SDS011;1545;51.728;8.796;2023-04-03T02:26:54;12.07;;;4.73;;
3068;SDS011;1545;51.728;8.796;2023-04-03T02:29:20;15.53;;;4.87;;
3068;SDS011;1545;51.728;8.796;2023-04-03T02:31:45;13.87;;;4.60;;
3068;SDS011;1545;51.728;8.796;2023-04-03T02:34:11;17.47;;;5.13;;
3068;SDS011;1545;51.728;8.796;2023-04-03T02:36:36;13.37;;;5.03;;
3068;SDS011;1545;51.728;8.796;2023-04-03T02:39:02;18.83;;;5.63;;
3068;SDS011;1545;51.728;8.796;2023-04-03T02:41:28;10.93;;;4.60;;
3068;SDS011;1545;51.728;8.796;2023-04-03T02:43:59;13.17;;;5.30;;
3068;SDS011;1545;51.728;8.796;2023-04-03T02:46:29;9.63;;;4.37;;
3068;SDS011;1545;51.728;8.796;2023-04-03T02:48:54;14.20;;;4.53;;
3068;SDS011;1545;51.728;8.796;2023-04-03T02:51:20;14.60;;;4.37;;
3068;SDS011;1545;51.728;8.796;2023-04-03T02:53:46;16.90;;;4.73;;
3068;SDS011;1545;51.728;8.796;2023-04-03T02:56:11;13.30;;;4.87;;
3068;SDS011;1545;51.728;8.796;2023-04-03T02:58:37;8.87;;;4.50;;
3068;SDS011;1545;51.728;8.796;2023-04-03T03:01:03;9.17;;;4.10;;
3068;SDS011;1545;51.728;8.796;2023-04-03T03:03:29;12.83;;;4.77;;
3068;SDS011;1545;51.728;8.796;2023-04-03T03:06:05;15.10;;;4.60;;
3068;SDS011;1545;51.728;8.796;2023-04-03T03:08:31;13.27;;;4.90;;
3068;SDS011;1545;51.728;8.796;2023-04-03T03:10:57;13.37;;;4.43;;
3068;SDS011;1545;51.728;8.796;2023-04-03T03:13:23;15.37;;;4.93;;
3068;SDS011;1545;51.728;8.796;2023-04-03T03:15:48;15.70;;;4.60;;
3068;SDS011;1545;51.728;8.796;2023-04-03T03:18:14;15.13;;;5.17;;
3068;SDS011;1545;51.728;8.796;2023-04-03T03:20:39;19.00;;;4.87;;
3068;SDS011;1545;51.728;8.796;2023-04-03T03:23:05;11.57;;;4.97;;
3068;SDS011;1545;51.728;8.796;2023-04-03T03:25:30;17.40;;;5.03;;
3068;SDS011;1545;51.728;8.796;2023-04-03T03:27:56;17.30;;;4.70;;
3068;SDS011;1545;51.728;8.796;2023-04-03T03:30:21;11.23;;;4.17;;
3068;SDS011;1545;51.728;8.796;2023-04-03T03:32:47;11.10;;;3.93;;
3068;SDS011;1545;51.728;8.796;2023-04-03T03:35:12;8.30;;;3.90;;
3068;SDS011;1545;51.728;8.796;2023-04-03T03:37:38;13.70;;;4.10;;
3068;SDS011;1545;51.728;8.796;2023-04-03T03:40:04;13.33;;;4.43;;
3068;SDS011;1545;51.728;8.796;2023-04-03T03:42:30;10.67;;;3.93;;
3068;SDS011;1545;51.728;8.796;2023-04-03T03:44:55;17.70;;;4.10;;
3068;SDS011;1545;51.728;8.796;2023-04-03T03:47:21;12.53;;;4.60;;
3068;SDS011;1545;51.728;8.796;2023-04-03T03:49:46;12.37;;;3.90;;
3068;SDS011;1545;51.728;8.796;2023-04-03T03:52:12;13.40;;;4.03;;
3068;SDS011;1545;51.728;8.796;2023-04-03T03:54:38;11.53;;;4.30;;
3068;SDS011;1545;51.728;8.796;2023-04-03T03:57:03;13.40;;;3.97;;
3068;SDS011;1545;51.728;8.796;2023-04-03T03:59:29;8.33;;;3.57;;
3068;SDS011;1545;51.728;8.796;2023-04-03T04:01:55;12.27;;;4.50;;
3068;SDS011;1545;51.728;8.796;2023-04-03T04:04:21;8.57;;;3.77;;
3068;SDS011;1545;51.728;8.796;2023-04-03T04:06:46;23.27;;;4.23;;
3068;SDS011;1545;51.728;8.796;2023-04-03T04:09:12;15.77;;;4.10;;
3068;SDS011;1545;51.728;8.796;2023-04-03T04:11:37;13.20;;;4.37;;
3068;SDS011;1545;51.728;8.796;2023-04-03T04:14:04;16.33;;;4.60;;
3068;SDS011;1545;51.728;8.796;2023-04-03T04:16:30;16.77;;;4.13;;
3068;SDS011;1545;51.728;8.796;2023-04-03T04:18:56;17.03;;;4.17;;
3068;SDS011;1545;51.728;8.796;2023-04-03T04:21:21;15.77;;;4.30;;
3068;SDS011;1545;51.728;8.796;2023-04-03T04:23:47;20.10;;;4.53;;
3068;SDS011;1545;51.728;8.796;2023-04-03T04:26:12;12.33;;;4.10;;
3068;SDS011;1545;51.728;8.796;2023-04-03T04:28:38;12.07;;;3.77;;
3068;SDS011;1545;51.728;8.796;2023-04-03T04:31:03;13.43;;;4.10;;
3068;SDS011;1545;51.728;8.796;2023-04-03T04:33:29;16.07;;;3.90;;
3068;SDS011;1545;51.728;8.796;2023-04-03T04:35:54;15.40;;;4.03;;
3068;SDS011;1545;51.728;8.796;2023-04-03T04:38:20;14.60;;;3.67;;
3068;SDS011;1545;51.728;8.796;2023-04-03T04:40:47;9.37;;;3.90;;
3068;SDS011;1545;51.728;8.796;2023-04-03T04:43:13;13.87;;;4.27;;
3068;SDS011;1545;51.728;8.796;2023-04-03T04:45:39;15.53;;;4.43;;
3068;SDS011;1545;51.728;8.796;2023-04-03T04:48:05;18.00;;;4.60;;
3068;SDS011;1545;51.728;8.796;2023-04-03T04:50:31;14.67;;;4.13;;
3068;SDS011;1545;51.728;8.796;2023-04-03T04:52:56;11.90;;;3.97;;
3068;SDS011;1545;51.728;8.796;2023-04-03T04:55:22;16.13;;;4.50;;
3068;SDS011;1545;51.728;8.796;2023-04-03T04:57:47;11.87;;;3.97;;
3068;SDS011;1545;51.728;8.796;2023-04-03T05:00:13;13.67;;;4.10;;
3068;SDS011;1545;51.728;8.796;2023-04-03T05:02:39;14.03;;;4.40;;
3068;SDS011;1545;51.728;8.796;2023-04-03T05:05:05;20.97;;;4.67;;
3068;SDS011;1545;51.728;8.796;2023-04-03T05:07:31;11.17;;;3.90;;
3068;SDS011;1545;51.728;8.796;2023-04-03T05:09:56;12.40;;;4.40;;
3068;SDS011;1545;51.728;8.796;2023-04-03T05:12:22;12.50;;;4.67;;
3068;SDS011;1545;51.728;8.796;2023-04-03T05:14:48;19.90;;;5.10;;
3068;SDS011;1545;51.728;8.796;2023-04-03T05:17:14;16.67;;;5.37;;
3068;SDS011;1545;51.728;8.796;2023-04-03T05:19:39;17.60;;;5.13;;
3068;SDS011;1545;51.728;8.796;2023-04-03T05:22:05;10.87;;;4.43;;
3068;SDS011;1545;51.728;8.796;2023-04-03T05:24:30;21.30;;;5.07;;
3068;SDS011;1545;51.728;8.796;2023-04-03T05:26:57;13.57;;;4.70;;
3068;SDS011;1545;51.728;8.796;2023-04-03T05:29:22;15.47;;;4.93;;
3068;SDS011;1545;51.728;8.796;2023-04-03T05:31:48;13.67;;;4.93;;
3068;SDS011;1545;51.728;8.796;2023-04-03T05:34:15;16.93;;;4.87;;
3068;SDS011;1545;51.728;8.796;2023-04-03T05:36:41;22.03;;;5.27;;
3068;SDS011;1545;51.728;8.796;2023-04-03T05:39:06;17.03;;;5.40;;
3068;SDS011;1545;51.728;8.796;2023-04-03T05:41:32;12.20;;;4.40;;
3068;SDS011;1545;51.728;8.796;2023-04-03T05:43:57;13.27;;;4.67;;
3068;SDS011;1545;51.728;8.796;2023-04-03T05:46:23;14.37;;;4.40;;
3068;SDS011;1545;51.728;8.796;2023-04-03T05:48:48;14.53;;;5.40;;
3068;SDS011;1545;51.728;8.796;2023-04-03T05:51:24;13.50;;;4.60;;
3068;SDS011;1545;51.728;8.796;2023-04-03T05:53:55;14.80;;;4.53;;
3068;SDS011;1545;51.728;8.796;2023-04-03T05:56:25;13.67;;;4.57;;
3068;SDS011;1545;51.728;8.796;2023-04-03T05:58:51;16.07;;;5.20;;
3068;SDS011;1545;51.728;8.796;2023-04-03T06:01:16;9.23;;;4.43;;
3068;SDS011;1545;51.728;8.796;2023-04-03T06:03:42;11.60;;;5.27;;
3068;SDS011;1545;51.728;8.796;2023-04-03T06:06:07;14.07;;;4.90;;
3068;SDS011;1545;51.728;8.796;2023-04-03T06:08:36;13.33;;;4.83;;
3068;SDS011;1545;51.728;8.796;2023-04-03T06:11:03;9.47;;;4.23;;
3068;SDS011;1545;51.728;8.796;2023-04-03T06:13:28;12.70;;;5.07;;
3068;SDS011;1545;51.728;8.796;2023-04-03T06:15:54;17.93;;;5.37;;
3068;SDS011;1545;51.728;8.796;2023-04-03T06:18:20;14.30;;;5.23;;
3068;SDS011;1545;51.728;8.796;2023-04-03T06:20:46;10.53;;;4.23;;
3068;SDS011;1545;51.728;8.796;2023-04-03T06:23:11;13.80;;;4.67;;
3068;SDS011;1545;51.728;8.796;2023-04-03T06:25:37;10.53;;;5.03;;
3068;SDS011;1545;51.728;8.796;2023-04-03T06:28:02;18.27;;;4.73;;
3068;SDS011;1545;51.728;8.796;2023-04-03T06:30:28;12.07;;;5.40;;
3068;SDS011;1545;51.728;8.796;2023-04-03T06:32:53;10.07;;;4.43;;
3068;SDS011;1545;51.728;8.796;2023-04-03T06:35:20;13.07;;;5.00;;
3068;SDS011;1545;51.728;8.796;2023-04-03T06:37:48;15.97;;;4.70;;
3068;SDS011;1545;51.728;8.796;2023-04-03T06:40:15;10.17;;;4.20;;
3068;SDS011;1545;51.728;8.796;2023-04-03T06:42:46;14.33;;;4.60;;
3068;SDS011;1545;51.728;8.796;2023-04-03T06:45:11;15.97;;;4.63;;
3068;SDS011;1545;51.728;8.796;2023-04-03T06:47:37;13.03;;;5.03;;
3068;SDS011;1545;51.728;8.796;2023-04-03T06:50:02;15.90;;;4.40;;
3068;SDS011;1545;51.728;8.796;2023-04-03T06:52:28;12.93;;;4.50;;
3068;SDS011;1545;51.728;8.796;2023-04-03T06:54:54;14.33;;;4.30;;
3068;SDS011;1545;51.728;8.796;2023-04-03T06:57:22;13.93;;;4.27;;
3068;SDS011;1545;51.728;8.796;2023-04-03T06:59:48;16.30;;;4.90;;
3068;SDS011;1545;51.728;8.796;2023-04-03T07:02:13;9.90;;;4.20;;
3068;SDS011;1545;51.728;8.796;2023-04-03T07:04:39;13.33;;;4.40;;
3068;SDS011;1545;51.728;8.796;2023-04-03T07:07:05;10.40;;;4.00;;
3068;SDS011;1545;51.728;8.796;2023-04-03T07:09:30;8.47;;;3.47;;
3068;SDS011;1545;51.728;8.796;2023-04-03T07:11:56;11.90;;;3.70;;
3068;SDS011;1545;51.728;8.796;2023-04-03T07:14:21;10.77;;;4.30;;
3068;SDS011;1545;51.728;8.796;2023-04-03T07:16:47;6.87;;;3.67;;
3068;SDS011;1545;51.728;8.796;2023-04-03T07:19:12;11.90;;;4.00;;
3068;SDS011;1545;51.728;8.796;2023-04-03T07:21:38;10.83;;;4.20;;
3068;SDS011;1545;51.728;8.796;2023-04-03T07:24:04;9.07;;;4.03;;
3068;SDS011;1545;51.728;8.796;2023-04-03T07:26:29;14.13;;;4.13;;
3068;SDS011;1545;51.728;8.796;2023-04-03T07:28:55;8.23;;;3.43;;
3068;SDS011;1545;51.728;8.796;2023-04-03T07:31:21;12.53;;;4.23;;
3068;SDS011;1545;51.728;8.796;2023-04-03T07:33:46;8.53;;;3.97;;
3068;SDS011;1545;51.728;8.796;2023-04-03T07:36:15;6.87;;;3.07;;
3068;SDS011;1545;51.728;8.796;2023-04-03T07:38:41;10.50;;;2.97;;
3068;SDS011;1545;51.728;8.796;2023-04-03T07:41:07;6.50;;;3.00;;
3068;SDS011;1545;51.728;8.796;2023-04-03T07:43:38;13.97;;;3.47;;
3068;SDS011;1545;51.728;8.796;2023-04-03T07:46:04;7.30;;;3.00;;
3068;SDS011;1545;51.728;8.796;2023-04-03T07:48:30;11.97;;;3.50;;
3068;SDS011;1545;51.728;8.796;2023-04-03T07:50:58;8.33;;;2.70;;
3068;SDS011;1545;51.728;8.796;2023-04-03T07:53:25;7.80;;;2.80;;
3068;SDS011;1545;51.728;8.796;2023-04-03T07:55:50;7.17;;;2.70;;
3068;SDS011;1545;51.728;8.796;2023-04-03T07:58:20;7.27;;;2.77;;
3068;SDS011;1545;51.728;8.796;2023-04-03T08:00:46;8.00;;;2.90;;
3068;SDS011;1545;51.728;8.796;2023-04-03T08:03:12;7.23;;;2.37;;
3068;SDS011;1545;51.728;8.796;2023-04-03T08:05:39;11.30;;;2.90;;
3068;SDS011;1545;51.728;8.796;2023-04-03T08:08:06;7.30;;;2.20;;
3068;SDS011;1545;51.728;8.796;2023-04-03T08:10:32;6.80;;;2.60;;
3068;SDS011;1545;51.728;8.796;2023-04-03T08:12:58;4.47;;;2.20;;
3068;SDS011;1545;51.728;8.796;2023-04-03T08:15:24;6.33;;;2.30;;
3068;SDS011;1545;51.728;8.796;2023-04-03T08:17:50;6.67;;;2.33;;
3068;SDS011;1545;51.728;8.796;2023-04-03T08:20:16;7.13;;;2.50;;
3068;SDS011;1545;51.728;8.796;2023-04-03T08:22:42;5.27;;;2.37;;
3068;SDS011;1545;51.728;8.796;2023-04-03T08:25:07;3.97;;;2.10;;
3068;SDS011;1545;51.728;8.796;2023-04-03T08:27:33;7.73;;;2.43;;
3068;SDS011;1545;51.728;8.796;2023-04-03T08:29:59;6.63;;;2.30;;
3068;SDS011;1545;51.728;8.796;2023-04-03T08:32:25;6.07;;;2.47;;
3068;SDS011;1545;51.728;8.796;2023-04-03T08:34:50;7.33;;;2.50;;
3068;SDS011;1545;51.728;8.796;2023-04-03T08:37:16;4.87;;;2.07;;
3068;SDS011;1545;51.728;8.796;2023-04-03T08:39:42;5.13;;;2.17;;
3068;SDS011;1545;51.728;8.796;2023-04-03T08:42:14;6.53;;;2.37;;
3068;SDS011;1545;51.728;8.796;2023-04-03T08:45:09;7.90;;;2.50;;
3068;SDS011;1545;51.728;8.796;2023-04-03T08:47:40;4.93;;;2.20;;
3068;SDS011;1545;51.728;8.796;2023-04-03T08:50:19;6.77;;;2.30;;
3068;SDS011;1545;51.728;8.796;2023-04-03T08:52:48;6.87;;;2.47;;
3068;SDS011;1545;51.728;8.796;2023-04-03T08:55:20;7.03;;;2.10;;
3068;SDS011;1545;51.728;8.796;2023-04-03T08:57:51;6.17;;;2.10;;
3068;SDS011;1545;51.728;8.796;2023-04-03T09:00:27;5.93;;;2.50;;
3068;SDS011;1545;51.728;8.796;2023-04-03T09:03:15;5.00;;;2.30;;
3068;SDS011;1545;51.728;8.796;2023-04-03T09:05:51;9.73;;;2.70;;
3068;SDS011;1545;51.728;8.796;2023-04-03T09:08:23;4.27;;;2.20;;
3068;SDS011;1545;51.728;8.796;2023-04-03T09:10:52;4.03;;;2.20;;
3068;SDS011;1545;51.728;8.796;2023-04-03T09:14:11;12.03;;;2.50;;
3068;SDS011;1545;51.728;8.796;2023-04-03T09:16:39;7.43;;;2.60;;
3068;SDS011;1545;51.728;8.796;2023-04-03T09:19:32;5.87;;;2.37;;
3068;SDS011;1545;51.728;8.796;2023-04-03T09:22:17;5.77;;;2.40;;
3068;SDS011;1545;51.728;8.796;2023-04-03T09:24:47;5.20;;;2.20;;
3068;SDS011;1545;51.728;8.796;2023-04-03T09:27:21;4.90;;;2.20;;
3068;SDS011;1545;51.728;8.796;2023-04-03T09:29:46;8.80;;;2.30;;
3068;SDS011;1545;51.728;8.796;2023-04-03T09:32:29;6.80;;;2.70;;
3068;SDS011;1545;51.728;8.796;2023-04-03T09:35:39;5.47;;;2.13;;
3068;SDS011;1545;51.728;8.796;2023-04-03T09:37:49;5.70;;;2.07;;
3068;SDS011;1545;51.728;8.796;2023-04-03T09:42:55;6.80;;;2.23;;
3068;SDS011;1545;51.728;8.796;2023-04-03T09:45:27;8.73;;;2.30;;
3068;SDS011;1545;51.728;8.796;2023-04-03T09:50:32;7.87;;;2.40;;
3068;SDS011;1545;51.728;8.796;2023-04-03T09:52:59;7.90;;;2.40;;
3068;SDS011;1545;51.728;8.796;2023-04-03T09:55:31;8.03;;;2.53;;
3068;SDS011;1545;51.728;8.796;2023-04-03T09:58:01;5.53;;;2.30;;
3068;SDS011;1545;51.728;8.796;2023-04-03T10:00:30;6.60;;;2.40;;
3068;SDS011;1545;51.728;8.796;2023-04-03T10:03:02;6.47;;;2.17;;
3068;SDS011;1545;51.728;8.796;2023-04-03T10:05:39;6.73;;;2.30;;
3068;SDS011;1545;51.728;8.796;2023-04-03T10:08:10;5.73;;;2.20;;
3068;SDS011;1545;51.728;8.796;2023-04-03T10:10:48;4.73;;;2.10;;
3068;SDS011;1545;51.728;8.796;2023-04-03T10:13:58;3.93;;;2.23;;
3068;SDS011;1545;51.728;8.796;2023-04-03T10:16:26;7.33;;;2.23;;
3068;SDS011;1545;51.728;8.796;2023-04-03T10:18:55;7.27;;;2.23;;
3068;SDS011;1545;51.728;8.796;2023-04-03T10:21:33;8.37;;;2.10;;
3068;SDS011;1545;51.728;8.796;2023-04-03T10:24:14;5.97;;;2.13;;
3068;SDS011;1545;51.728;8.796;2023-04-03T10:26:53;9.23;;;2.20;;
3068;SDS011;1545;51.728;8.796;2023-04-03T10:29:38;7.47;;;2.47;;
3068;SDS011;1545;51.728;8.796;2023-04-03T10:32:31;8.47;;;2.43;;
3068;SDS011;1545;51.728;8.796;2023-04-03T10:40:56;10.87;;;2.10;;
3068;SDS011;1545;51.728;8.796;2023-04-03T10:43:30;6.53;;;2.00;;
3068;SDS011;1545;51.728;8.796;2023-04-03T10:46:04;7.00;;;2.30;;
3068;SDS011;1545;51.728;8.796;2023-04-03T10:48:47;7.40;;;2.13;;
3068;SDS011;1545;51.728;8.796;2023-04-03T10:51:51;4.83;;;2.17;;
3068;SDS011;1545;51.728;8.796;2023-04-03T10:56:57;8.17;;;2.57;;
3068;SDS011;1545;51.728;8.796;2023-04-03T10:59:29;18.60;;;2.80;;
3068;SDS011;1545;51.728;8.796;2023-04-03T11:02:21;5.90;;;2.13;;
3068;SDS011;1545;51.728;8.796;2023-04-03T11:04:48;4.23;;;2.10;;
3068;SDS011;1545;51.728;8.796;2023-04-03T11:07:20;8.40;;;2.17;;
3068;SDS011;1545;51.728;8.796;2023-04-03T11:10:03;5.47;;;2.33;;
3068;SDS011;1545;51.728;8.796;2023-04-03T11:15:19;11.13;;;2.50;;
3068;SDS011;1545;51.728;8.796;2023-04-03T11:17:48;8.27;;;2.50;;
3068;SDS011;1545;51.728;8.796;2023-04-03T11:20:20;5.30;;;2.43;;
3068;SDS011;1545;51.728;8.796;2023-04-03T11:25:38;10.43;;;3.00;;
3068;SDS011;1545;51.728;8.796;2023-04-03T11:28:09;9.13;;;2.47;;
3068;SDS011;1545;51.728;8.796;2023-04-03T11:33:31;8.03;;;2.43;;
3068;SDS011;1545;51.728;8.796;2023-04-03T11:38:51;5.83;;;2.53;;
3068;SDS011;1545;51.728;8.796;2023-04-03T11:41:53;10.43;;;2.90;;
3068;SDS011;1545;51.728;8.796;2023-04-03T11:44:29;6.20;;;2.90;;
3068;SDS011;1545;51.728;8.796;2023-04-03T11:47:03;7.03;;;2.90;;
3068;SDS011;1545;51.728;8.796;2023-04-03T11:52:35;18.23;;;3.97;;
3068;SDS011;1545;51.728;8.796;2023-04-03T12:16:20;7.60;;;3.00;;
3068;SDS011;1545;51.728;8.796;2023-04-03T12:21:14;4.70;;;2.87;;
3068;SDS011;1545;51.728;8.796;2023-04-03T12:26:51;7.63;;;2.93;;
3068;SDS011;1545;51.728;8.796;2023-04-03T12:32:23;9.33;;;2.90;;
3068;SDS011;1545;51.728;8.796;2023-04-03T12:38:15;12.40;;;3.40;;
3068;SDS011;1545;51.728;8.796;2023-04-03T12:43:43;13.47;;;3.07;;
3068;SDS011;1545;51.728;8.796;2023-04-03T12:46:36;10.67;;;2.80;;
3068;SDS011;1545;51.728;8.796;2023-04-03T12:49:53;8.23;;;2.67;;
3068;SDS011;1545;51.728;8.796;2023-04-03T12:52:21;9.33;;;3.13;;
3068;SDS011;1545;51.728;8.796;2023-04-03T12:54:56;6.53;;;2.50;;
3068;SDS011;1545;51.728;8.796;2023-04-03T12:57:24;4.43;;;2.50;;
3068;SDS011;1545;51.728;8.796;2023-04-03T12:59:51;6.47;;;2.87;;
3068;SDS011;1545;51.728;8.796;2023-04-03T13:02:21;7.17;;;2.57;;
3068;SDS011;1545;51.728;8.796;2023-04-03T13:04:56;11.30;;;2.90;;
3068;SDS011;1545;51.728;8.796;2023-04-03T13:10:13;6.20;;;2.63;;
3068;SDS011;1545;51.728;8.796;2023-04-03T13:12:51;5.30;;;2.80;;
3068;SDS011;1545;51.728;8.796;2023-04-03T13:15:22;4.57;;;2.43;;
3068;SDS011;1545;51.728;8.796;2023-04-03T13:17:52;6.27;;;2.70;;
3068;SDS011;1545;51.728;8.796;2023-04-03T13:20:20;5.77;;;2.60;;
3068;SDS011;1545;51.728;8.796;2023-04-03T13:22:59;7.30;;;2.60;;
3068;SDS011;1545;51.728;8.796;2023-04-03T13:25:31;8.27;;;2.77;;
3068;SDS011;1545;51.728;8.796;2023-04-03T13:27:59;8.13;;;3.00;;
3068;SDS011;1545;51.728;8.796;2023-04-03T13:30:28;5.73;;;2.67;;
3068;SDS011;1545;51.728;8.796;2023-04-03T13:32:56;8.43;;;3.40;;
3068;SDS011;1545;51.728;8.796;2023-04-03T13:35:42;6.23;;;2.90;;
3068;SDS011;1545;51.728;8.796;2023-04-03T13:40:49;9.07;;;2.60;;
3068;SDS011;1545;51.728;8.796;2023-04-03T13:43:21;13.80;;;3.17;;
3068;SDS011;1545;51.728;8.796;2023-04-03T13:45:54;6.23;;;3.20;;
3068;SDS011;1545;51.728;8.796;2023-04-03T13:48:21;8.87;;;2.97;;
3068;SDS011;1545;51.728;8.796;2023-04-03T13:50:51;8.00;;;3.00;;
3068;SDS011;1545;51.728;8.796;2023-04-03T13:53:26;5.90;;;3.03;;
3068;SDS011;1545;51.728;8.796;2023-04-03T13:56:06;8.47;;;2.77;;
3068;SDS011;1545;51.728;8.796;2023-04-03T13:58:34;8.93;;;2.97;;
3068;SDS011;1545;51.728;8.796;2023-04-03T14:06:53;7.10;;;3.10;;
3068;SDS011;1545;51.728;8.796;2023-04-03T14:09:19;8.33;;;3.00;;
3068;SDS011;1545;51.728;8.796;2023-04-03T14:11:46;7.87;;;2.80;;
3068;SDS011;1545;51.728;8.796;2023-04-03T14:14:17;9.07;;;3.00;;
3068;SDS011;1545;51.728;8.796;2023-04-03T14:16:47;8.33;;;3.10;;
3068;SDS011;1545;51.728;8.796;2023-04-03T14:19:19;5.37;;;2.70;;
3068;SDS011;1545;51.728;8.796;2023-04-03T14:21:50;5.83;;;2.70;;
3068;SDS011;1545;51.728;8.796;2023-04-03T14:24:17;9.33;;;2.80;;
3068;SDS011;1545;51.728;8.796;2023-04-03T14:26:44;6.43;;;2.73;;
3068;SDS011;1545;51.728;8.796;2023-04-03T14:29:10;8.17;;;3.07;;
3068;SDS011;1545;51.728;8.796;2023-04-03T14:31:36;6.83;;;3.03;;
3068;SDS011;1545;51.728;8.796;2023-04-03T14:34:03;5.00;;;2.80;;
3068;SDS011;1545;51.728;8.796;2023-04-03T14:36:28;6.63;;;2.87;;
3068;SDS011;1545;51.728;8.796;2023-04-03T14:38:55;7.80;;;2.67;;
3068;SDS011;1545;51.728;8.796;2023-04-03T14:41:23;8.40;;;2.80;;
3068;SDS011;1545;51.728;8.796;2023-04-03T14:43:52;7.97;;;3.00;;
3068;SDS011;1545;51.728;8.796;2023-04-03T14:46:20;6.70;;;2.77;;
3068;SDS011;1545;51.728;8.796;2023-04-03T14:48:51;6.27;;;2.73;;
3068;SDS011;1545;51.728;8.796;2023-04-03T14:51:16;5.17;;;2.73;;
3068;SDS011;1545;51.728;8.796;2023-04-03T14:53:42;4.57;;;2.93;;
3068;SDS011;1545;51.728;8.796;2023-04-03T14:56:19;9.60;;;2.83;;
3068;SDS011;1545;51.728;8.796;2023-04-03T14:58:48;9.63;;;3.17;;
3068;SDS011;1545;51.728;8.796;2023-04-03T15:01:17;7.77;;;2.83;;
3068;SDS011;1545;51.728;8.796;2023-04-03T15:03:42;7.67;;;2.97;;
3068;SDS011;1545;51.728;8.796;2023-04-03T15:06:09;9.77;;;3.10;;
3068;SDS011;1545;51.728;8.796;2023-04-03T15:08:36;9.83;;;2.97;;
3068;SDS011;1545;51.728;8.796;2023-04-03T15:11:02;5.60;;;2.87;;
3068;SDS011;1545;51.728;8.796;2023-04-03T15:13:28;8.07;;;2.90;;
3068;SDS011;1545;51.728;8.796;2023-04-03T15:15:53;8.47;;;3.30;;
3068;SDS011;1545;51.728;8.796;2023-04-03T15:18:23;9.07;;;2.80;;
3068;SDS011;1545;51.728;8.796;2023-04-03T15:20:51;8.67;;;2.70;;
3068;SDS011;1545;51.728;8.796;2023-04-03T15:23:17;8.77;;;2.70;;
3068;SDS011;1545;51.728;8.796;2023-04-03T15:25:44;5.43;;;2.87;;
3068;SDS011;1545;51.728;8.796;2023-04-03T15:28:13;10.07;;;3.00;;
3068;SDS011;1545;51.728;8.796;2023-04-03T15:30:46;8.30;;;3.00;;
3068;SDS011;1545;51.728;8.796;2023-04-03T15:33:12;10.33;;;3.03;;
3068;SDS011;1545;51.728;8.796;2023-04-03T15:35:37;5.20;;;2.70;;
3068;SDS011;1545;51.728;8.796;2023-04-03T15:38:03;10.53;;;3.40;;
3068;SDS011;1545;51.728;8.796;2023-04-03T15:40:28;5.80;;;2.70;;
3068;SDS011;1545;51.728;8.796;2023-04-03T15:42:54;7.47;;;2.83;;
3068;SDS011;1545;51.728;8.796;2023-04-03T15:45:19;6.93;;;2.87;;
3068;SDS011;1545;51.728;8.796;2023-04-03T15:47:46;6.40;;;3.00;;
3068;SDS011;1545;51.728;8.796;2023-04-03T15:50:11;9.30;;;2.73;;
3068;SDS011;1545;51.728;8.796;2023-04-03T15:52:37;7.93;;;3.23;;
3068;SDS011;1545;51.728;8.796;2023-04-03T15:55:02;6.10;;;3.00;;
3068;SDS011;1545;51.728;8.796;2023-04-03T15:57:29;7.00;;;2.87;;
3068;SDS011;1545;51.728;8.796;2023-04-03T15:59:54;5.50;;;2.90;;
3068;SDS011;1545;51.728;8.796;2023-04-03T16:02:20;5.53;;;2.80;;
3068;SDS011;1545;51.728;8.796;2023-04-03T16:04:46;5.60;;;2.40;;
3068;SDS011;1545;51.728;8.796;2023-04-03T16:07:11;11.60;;;3.17;;
3068;SDS011;1545;51.728;8.796;2023-04-03T16:09:37;7.33;;;3.10;;
3068;SDS011;1545;51.728;8.796;2023-04-03T16:12:03;6.30;;;2.90;;
3068;SDS011;1545;51.728;8.796;2023-04-03T16:14:28;9.47;;;2.97;;
3068;SDS011;1545;51.728;8.796;2023-04-03T16:16:55;7.00;;;2.97;;
3068;SDS011;1545;51.728;8.796;2023-04-03T16:19:22;6.03;;;2.90;;
3068;SDS011;1545;51.728;8.796;2023-04-03T16:21:48;10.37;;;3.43;;
3068;SDS011;1545;51.728;8.796;2023-04-03T16:24:13;9.37;;;3.03;;
3068;SDS011;1545;51.728;8.796;2023-04-03T16:26:39;5.40;;;2.80;;
3068;SDS011;1545;51.728;8.796;2023-04-03T16:29:05;10.17;;;2.90;;
3068;SDS011;1545;51.728;8.796;2023-04-03T16:31:31;12.13;;;3.07;;
3068;SDS011;1545;51.728;8.796;2023-04-03T16:33:57;6.70;;;2.90;;
3068;SDS011;1545;51.728;8.796;2023-04-03T16:36:24;8.43;;;3.50;;